Time;durP1;ratioP1;P1;durP2;ratioP2;P2;SDS_P1;SDS_P2;PMS_P1;PMS_P2;Temp;Humidity;BMP_temperature;BMP_pressure;BME280_temperature;BME280_humidity;BME280_pressure;Samples;Min_cycle;Max_cycle;Signal;HPM_P1;HPM_P2
2022/03/06 00:01:42;;;;;;;9.77;3.92;;;;;;;3.25;72.30;102718.78;4960227;28;20727;-51
2022/03/06 00:04:10;;;;;;;13.50;4.38;;;;;;;3.25;72.62;102717.97;4959544;28;20512;-55
2022/03/06 00:06:37;;;;;;;8.45;4.47;;;;;;;3.27;72.62;102732.22;4959059;28;20043;-52
2022/03/06 00:09:04;;;;;;;6.28;3.97;;;;;;;3.27;72.75;102732.22;4958485;28;20046;-51
2022/03/06 00:11:31;;;;;;;9.35;3.58;;;;;;;3.26;72.55;102734.13;4958851;28;20063;-55
2022/03/06 00:14:33;;;;;;;15.02;5.15;;;;;;;3.22;72.68;102729.41;4963364;28;20050;-50
2022/03/06 00:17:00;;;;;;;12.55;4.78;;;;;;;3.20;72.51;102735.13;4964738;28;20050;-49
2022/03/06 00:19:27;;;;;;;12.73;4.57;;;;;;;3.22;72.54;102738.44;4958926;28;20047;-51
2022/03/06 00:21:54;;;;;;;6.72;3.83;;;;;;;3.20;72.59;102731.56;4961459;28;20039;-49
2022/03/06 00:25:25;;;;;;;11.73;4.78;;;;;;;3.15;73.17;102739.69;4959760;28;20085;-51
2022/03/06 00:27:52;;;;;;;8.55;3.45;;;;;;;3.14;73.10;102732.53;4958233;28;20131;-51
2022/03/06 00:30:37;;;;;;;6.38;3.95;;;;;;;3.14;72.97;102735.28;4946954;28;20051;-50
2022/03/06 00:33:05;;;;;;;8.82;5.15;;;;;;;3.15;72.91;102729.53;4947874;28;20106;-52
2022/03/06 00:35:32;;;;;;;9.40;3.85;;;;;;;3.15;73.08;102729.53;4960766;28;20043;-52
2022/03/06 00:38:00;;;;;;;14.20;4.30;;;;;;;3.15;73.28;102728.75;4958191;28;20047;-50
2022/03/06 00:44:50;;;;;;;10.77;3.30;;;;;;;3.19;73.71;102735.38;4958687;28;20034;-50
2022/03/06 00:47:18;;;;;;;9.80;4.85;;;;;;;3.22;73.55;102743.09;4947892;28;20102;-49
2022/03/06 00:49:45;;;;;;;11.70;3.88;;;;;;;3.25;73.39;102728.91;4945946;28;20043;-50
2022/03/06 00:52:12;;;;;;;10.15;3.78;;;;;;;3.30;73.68;102724.34;4951802;28;20090;-49
2022/03/06 00:54:39;;;;;;;9.45;3.60;;;;;;;3.34;73.59;102727.41;4937355;29;20066;-52
2022/03/06 01:01:56;;;;;;;10.60;3.90;;;;;;;3.29;73.30;102730.06;4945307;29;20041;-53
2022/03/06 01:04:37;;;;;;;14.65;5.00;;;;;;;3.25;73.16;102720.69;4946607;29;20067;-50
2022/03/06 01:07:04;;;;;;;10.63;3.90;;;;;;;3.23;73.27;102725.59;4945468;29;20355;-54
2022/03/06 01:09:33;;;;;;;7.75;3.70;;;;;;;3.19;73.29;102717.03;4946773;29;20105;-57
2022/03/06 01:11:59;;;;;;;9.95;3.67;;;;;;;3.15;73.57;102717.78;4942391;29;20121;-52
2022/03/06 01:14:26;;;;;;;7.40;3.58;;;;;;;3.15;73.96;102720.53;4946572;29;20500;-53
2022/03/06 01:16:53;;;;;;;7.90;3.83;;;;;;;3.16;73.96;102719.44;4945657;29;20067;-50
2022/03/06 01:19:20;;;;;;;8.70;4.45;;;;;;;3.19;73.89;102724.41;4947264;29;20054;-49
2022/03/06 01:21:48;;;;;;;16.92;4.32;;;;;;;3.20;74.07;102728.81;4945064;29;20027;-50
2022/03/06 01:24:17;;;;;;;7.70;3.92;;;;;;;3.22;74.05;102723.94;4929600;29;20075;-51
2022/03/06 01:26:44;;;;;;;8.43;3.72;;;;;;;3.20;74.00;102728.81;4945719;29;20831;-51
2022/03/06 01:29:11;;;;;;;8.10;3.95;;;;;;;3.17;74.29;102732.88;4953084;28;20051;-53
2022/03/06 01:31:38;;;;;;;11.82;3.78;;;;;;;3.13;74.06;102725.41;4945482;29;20086;-55
2022/03/06 01:34:05;;;;;;;8.93;3.75;;;;;;;3.11;74.31;102733.03;4952247;28;20758;-53
2022/03/06 01:36:32;;;;;;;8.15;4.75;;;;;;;3.07;74.40;102722.56;4944272;29;20126;-53
2022/03/06 01:38:59;;;;;;;6.53;3.80;;;;;;;3.04;74.18;102728.53;4945899;29;20456;-55
2022/03/06 01:41:26;;;;;;;12.45;4.05;;;;;;;3.05;74.62;102732.09;4929325;29;20043;-54
2022/03/06 01:43:53;;;;;;;15.13;4.32;;;;;;;3.02;74.32;102724.38;4946166;29;20461;-54
2022/03/06 01:46:20;;;;;;;10.43;4.20;;;;;;;3.02;74.58;102727.97;4946256;29;20058;-51
2022/03/06 01:48:47;;;;;;;11.88;4.50;;;;;;;3.06;74.77;102731.88;4937862;29;20047;-51
2022/03/06 01:51:15;;;;;;;8.35;4.85;;;;;;;3.04;74.46;102722.25;4943446;29;20521;-54
2022/03/06 01:53:42;;;;;;;9.10;4.20;;;;;;;3.03;74.39;102720.59;4929820;29;20153;-50
2022/03/06 01:56:11;;;;;;;9.15;5.22;;;;;;;2.99;74.50;102722.16;4947562;29;20505;-51
2022/03/06 02:04:23;;;;;;;7.07;4.00;;;;;;;2.92;74.62;102713.28;4952146;29;20031;-50
2022/03/06 02:07:21;;;;;;;13.25;4.43;;;;;;;2.82;74.76;102713.94;4949011;29;20114;-53
2022/03/06 02:09:48;;;;;;;8.82;4.85;;;;;;;2.79;74.57;102713.56;4950658;29;20043;-51
2022/03/06 02:12:24;;;;;;;7.72;4.50;;;;;;;2.75;74.92;102705.06;4948355;28;20462;-50
2022/03/06 02:14:54;;;;;;;13.95;4.50;;;;;;;2.77;74.97;102699.31;4949177;29;20110;-53
2022/03/06 02:17:22;;;;;;;9.00;5.30;;;;;;;2.77;75.00;102699.31;4946924;29;20106;-49
2022/03/06 02:19:52;;;;;;;7.60;4.05;;;;;;;2.77;74.89;102697.44;4948668;29;20126;-55
2022/03/06 02:27:17;;;;;;;9.00;4.45;;;;;;;2.71;74.98;102703.88;4949871;29;20050;-49
2022/03/06 02:29:44;;;;;;;13.57;3.85;;;;;;;2.67;74.80;102699.97;4949271;29;20516;-52
2022/03/06 02:32:17;;;;;;;12.75;5.38;;;;;;;2.59;75.02;102703.09;4949236;29;20061;-57
2022/03/06 02:34:47;;;;;;;10.57;3.92;;;;;;;2.58;75.08;102700.59;4948502;28;20039;-51
2022/03/06 02:37:16;;;;;;;8.90;4.63;;;;;;;2.55;75.15;102701.91;4931552;29;20043;-51
2022/03/06 02:39:43;;;;;;;14.15;4.80;;;;;;;2.54;75.50;102691.25;4949415;29;20134;-51
2022/03/06 02:46:39;;;;;;;5.40;3.92;;;;;;;2.50;75.18;102698.25;4953665;28;20061;-52
2022/03/06 02:49:06;;;;;;;10.60;4.72;;;;;;;2.47;75.52;102694.94;4944759;28;20432;-52
2022/03/06 02:51:33;;;;;;;11.02;6.25;;;;;;;2.50;75.29;102699.09;4960225;28;20050;-55
2022/03/06 02:54:00;;;;;;;9.05;4.70;;;;;;;2.53;75.80;102704.06;4963086;28;20031;-50
2022/03/06 02:56:28;;;;;;;8.50;5.20;;;;;;;2.56;75.91;102703.59;4960834;28;20109;-51
2022/03/06 02:58:55;;;;;;;13.40;4.47;;;;;;;2.60;75.92;102692.97;4964046;28;20385;-53
2022/03/06 03:04:41;;;;;;;12.35;4.15;;;;;;;2.58;76.23;102690.50;4972463;23;20105;-51
2022/03/06 03:07:28;;;;;;;9.82;4.40;;;;;;;2.59;75.75;102688.59;4951847;28;20105;-51
2022/03/06 03:09:55;;;;;;;9.55;4.30;;;;;;;2.55;76.05;102685.50;4955535;28;20130;-50
2022/03/06 03:17:04;;;;;;;6.22;3.92;;;;;;;2.46;75.90;102681.53;4957671;28;20075;-52
2022/03/06 03:19:45;;;;;;;9.98;4.15;;;;;;;2.42;76.10;102672.97;4955967;28;20042;-52
2022/03/06 03:27:20;;;;;;;9.07;4.68;;;;;;;2.39;76.99;102678.94;4955724;28;20041;-51
2022/03/06 03:29:47;;;;;;;8.55;4.20;;;;;;;2.43;76.49;102671.91;4953686;28;20046;-53
2022/03/06 03:32:14;;;;;;;10.75;3.90;;;;;;;2.44;76.43;102673.56;4950836;28;20039;-51
2022/03/06 03:34:41;;;;;;;12.52;4.47;;;;;;;2.45;76.60;102674.38;4955052;28;20126;-52
2022/03/06 03:37:08;;;;;;;10.60;3.90;;;;;;;2.43;76.79;102665.59;4951818;28;20039;-55
2022/03/06 03:44:58;;;;;;;9.10;3.95;;;;;;;2.41;76.92;102673.19;4953079;28;20059;-51
2022/03/06 03:47:34;;;;;;;16.55;4.28;;;;;;;2.39;76.99;102659.78;4955631;28;20138;-52
2022/03/06 03:50:03;;;;;;;9.05;4.72;;;;;;;2.40;76.78;102660.63;4953779;28;20067;-51
2022/03/06 03:52:31;;;;;;;10.10;4.25;;;;;;;2.41;76.88;102668.56;4951888;28;20074;-50
2022/03/06 03:54:58;;;;;;;13.60;5.18;;;;;;;2.42;77.15;102666.69;4952633;28;20392;-54
2022/03/06 03:57:25;;;;;;;6.13;4.13;;;;;;;2.43;77.20;102671.91;4955217;28;20078;-54
2022/03/06 04:00:32;;;;;;;11.30;6.53;;;;;;;2.46;77.65;102673.34;4936700;28;20072;-52
2022/03/06 04:03:32;;;;;;;9.80;4.20;;;;;;;2.50;77.77;102671.75;4951242;28;20381;-54
2022/03/06 04:05:59;;;;;;;13.07;4.35;;;;;;;2.53;77.40;102671.25;4937331;28;20052;-50
2022/03/06 04:08:26;;;;;;;11.57;4.95;;;;;;;2.54;77.52;102672.09;4953722;28;20508;-54
2022/03/06 04:10:56;;;;;;;8.93;5.20;;;;;;;2.51;77.61;102670.69;4951512;28;20048;-55
2022/03/06 04:13:23;;;;;;;8.68;4.05;;;;;;;2.48;77.52;102679.38;4956189;28;20066;-53
2022/03/06 04:16:00;;;;;;;11.30;6.10;;;;;;;2.42;77.86;102680.34;4952147;28;20135;-52
2022/03/06 04:19:04;;;;;;;11.27;4.80;;;;;;;2.37;78.03;102680.25;4956191;28;20047;-52
2022/03/06 04:21:31;;;;;;;7.97;3.92;;;;;;;2.33;77.51;102681.81;4938407;28;20070;-50
2022/03/06 04:23:58;;;;;;;8.85;3.90;;;;;;;2.28;77.77;102685.25;4947118;28;20051;-52
2022/03/06 04:26:25;;;;;;;10.05;3.80;;;;;;;2.21;77.75;102681.00;4953496;28;20086;-53
2022/03/06 04:32:34;;;;;;;6.13;4.30;;;;;;;2.09;78.40;102678.31;4954553;28;20563;-52
2022/03/06 04:35:01;;;;;;;14.68;5.00;;;;;;;2.11;78.35;102684.38;4951708;28;20258;-52
2022/03/06 04:38:41;;;;;;;7.93;4.75;;;;;;;2.06;78.97;102677.97;4957200;28;20038;-51
2022/03/06 04:50:22;;;;;;;8.30;4.32;;;;;;;2.11;78.08;102686.28;4953279;28;20511;-51
2022/03/06 04:56:56;;;;;;;15.05;6.50;;;;;;;1.98;78.21;102689.28;4952910;28;20118;-52
2022/03/06 04:59:23;;;;;;;11.30;5.00;;;;;;;1.95;78.15;102684.28;4951946;28;20047;-50
2022/03/06 05:01:50;;;;;;;15.13;5.60;;;;;;;1.91;78.33;102672.19;4951159;28;20365;-48
2022/03/06 05:04:17;;;;;;;11.00;4.82;;;;;;;1.88;78.30;102672.66;4952874;28;20508;-50
2022/03/06 05:06:44;;;;;;;14.30;4.25;;;;;;;1.87;78.55;102671.84;4926848;28;20078;-55
2022/03/06 05:09:11;;;;;;;11.05;4.93;;;;;;;1.92;78.56;102679.31;4948190;28;20436;-53
2022/03/06 05:11:38;;;;;;;10.27;4.80;;;;;;;1.97;78.52;102685.72;4954443;28;20093;-49
2022/03/06 05:14:46;;;;;;;12.50;5.63;;;;;;;1.98;78.72;102681.06;4955878;28;20404;-49
2022/03/06 05:17:23;;;;;;;13.98;5.68;;;;;;;2.01;78.78;102683.34;4952563;28;20051;-53
2022/03/06 05:20:12;;;;;;;10.75;5.90;;;;;;;2.03;78.52;102692.94;4953193;28;20138;-53
2022/03/06 05:26:33;;;;;;;13.80;5.85;;;;;;;1.99;78.54;102678.09;4953023;28;20384;-53
2022/03/06 05:33:51;;;;;;;11.70;5.82;;;;;;;1.85;78.59;102677.53;4955304;28;20399;-50
2022/03/06 05:36:32;;;;;;;12.35;5.25;;;;;;;1.77;78.80;102693.47;4951606;28;20127;-54
2022/03/06 05:39:19;;;;;;;17.58;6.88;;;;;;;1.74;78.82;102689.31;4956145;28;20070;-53
2022/03/06 05:41:47;;;;;;;13.68;5.90;;;;;;;1.72;79.24;102691.44;4955727;28;20043;-52
2022/03/06 05:44:14;;;;;;;14.88;6.13;;;;;;;1.69;79.21;102700.13;4955580;28;20546;-49
2022/03/06 05:46:41;;;;;;;9.65;5.18;;;;;;;1.67;79.52;102695.94;4955215;28;20047;-50
2022/03/06 05:49:12;;;;;;;12.73;6.10;;;;;;;1.65;79.52;102685.28;4954359;28;20074;-49
2022/03/06 05:51:41;;;;;;;13.10;5.53;;;;;;;1.66;79.29;102686.94;4958134;28;20050;-52
2022/03/06 05:59:07;;;;;;;13.18;4.78;;;;;;;1.58;79.03;102676.38;4953892;28;20400;-51
2022/03/06 06:01:34;;;;;;;9.10;4.38;;;;;;;1.54;78.89;102672.47;4959022;28;20055;-54
2022/03/06 06:09:11;;;;;;;8.63;4.72;;;;;;;1.53;78.93;102687.19;4944081;29;20053;-49
2022/03/06 06:18:20;;;;;;;9.60;5.10;;;;;;;1.47;79.15;102674.50;4946464;29;20050;-48
2022/03/06 06:20:47;;;;;;;11.60;5.75;;;;;;;1.39;78.73;102679.47;4943502;29;20131;-49
2022/03/06 06:23:14;;;;;;;13.00;5.72;;;;;;;1.29;79.00;102671.88;4941000;29;20087;-50
2022/03/06 06:25:41;;;;;;;11.90;4.97;;;;;;;1.27;79.09;102682.22;4946656;29;20054;-51
2022/03/06 06:28:08;;;;;;;9.52;4.90;;;;;;;1.27;79.49;102684.94;4944753;29;20090;-49
2022/03/06 06:30:34;;;;;;;16.08;5.95;;;;;;;1.26;79.50;102683.25;4940459;28;20083;-52
2022/03/06 06:37:17;;;;;;;10.32;3.72;;;;;;;1.23;79.36;102683.72;4946387;29;20086;-50
2022/03/06 06:39:44;;;;;;;13.93;5.72;;;;;;;1.26;79.62;102685.16;4947383;29;20090;-49
2022/03/06 06:42:11;;;;;;;12.18;4.72;;;;;;;1.32;79.74;102685.06;4943456;29;20143;-52
2022/03/06 06:44:38;;;;;;;9.88;4.65;;;;;;;1.34;79.73;102693.84;4942018;29;20055;-51
2022/03/06 06:47:08;;;;;;;8.27;3.95;;;;;;;1.35;79.75;102687.28;4943782;28;20054;-49
2022/03/06 06:50:08;;;;;;;10.18;4.50;;;;;;;1.33;79.73;102685.84;4945730;28;20103;-47
2022/03/06 06:52:35;;;;;;;10.10;3.90;;;;;;;1.32;79.73;102679.59;4941180;29;20047;-55
2022/03/06 06:55:35;;;;;;;9.32;3.88;;;;;;;1.35;80.41;102678.28;4943993;28;20102;-49
2022/03/06 06:58:03;;;;;;;10.85;3.15;;;;;;;1.45;80.44;102678.53;4941432;29;20106;-50
2022/03/06 07:00:30;;;;;;;5.63;2.35;;;;;;;1.55;80.46;102674.13;4942450;29;20027;-49
2022/03/06 07:02:58;;;;;;;10.00;2.58;;;;;;;1.61;80.13;102675.91;4944926;29;20420;-50
2022/03/06 07:09:18;;;;;;;;;;;;;;;1.67;80.26;102694.06;4954968;28;20038;-53
2022/03/06 07:15:48;;;;;;;11.80;3.65;;;;;;;1.65;79.88;102701.66;4952624;28;20564;-50
2022/03/06 07:18:15;;;;;;;11.88;2.58;;;;;;;1.66;80.03;102692.41;4936723;28;20039;-49
2022/03/06 07:26:03;;;;;;;17.75;2.35;;;;;;;1.73;80.62;102695.84;4954505;28;20114;-49
2022/03/06 07:28:30;;;;;;;13.82;2.40;;;;;;;1.80;80.69;102693.78;4954548;28;20063;-49
2022/03/06 07:30:57;;;;;;;9.05;2.33;;;;;;;1.85;80.29;102713.03;4956384;28;20039;-50
2022/03/06 07:33:36;;;;;;;9.45;2.25;;;;;;;1.89;80.72;102696.16;4957577;28;20087;-51
2022/03/06 07:36:03;;;;;;;9.27;2.00;;;;;;;1.93;81.09;102694.63;4949413;28;20054;-52
2022/03/06 07:38:30;;;;;;;6.60;2.22;;;;;;;1.98;81.14;102700.19;4956802;28;20046;-51
2022/03/06 07:40:59;;;;;;;7.57;3.05;;;;;;;2.01;81.29;102699.72;4951820;28;20039;-53
2022/03/06 07:43:25;;;;;;;9.40;2.15;;;;;;;2.07;81.26;102704.19;4955533;28;20129;-50
2022/03/06 07:45:52;;;;;;;10.68;2.17;;;;;;;2.12;81.22;102693.41;4947020;28;20138;-48
2022/03/06 07:48:19;;;;;;;8.70;1.80;;;;;;;2.17;81.55;102701.72;4956339;28;20106;-50
2022/03/06 07:50:46;;;;;;;5.10;2.25;;;;;;;2.24;81.46;102702.38;4953583;28;20036;-53
2022/03/06 07:53:37;;;;;;;3.83;1.50;;;;;;;2.28;81.42;102703.56;4957593;28;20038;-51
2022/03/06 07:56:04;;;;;;;6.15;2.05;;;;;;;2.34;81.69;102716.25;4953568;28;20194;-53
2022/03/06 07:59:13;;;;;;;3.10;1.40;;;;;;;2.39;81.39;102709.00;4948418;28;20050;-50
2022/03/06 08:01:40;;;;;;;12.10;1.95;;;;;;;2.44;81.39;102705.53;4952593;28;20508;-53
2022/03/06 08:08:56;;;;;;;7.70;1.95;;;;;;;2.61;81.69;102703.69;4953164;28;20099;-49
2022/03/06 08:11:23;;;;;;;5.32;1.90;;;;;;;2.66;81.33;102702.94;4954983;28;20031;-48
2022/03/06 08:13:51;;;;;;;9.85;1.83;;;;;;;2.69;81.75;102703.28;4954800;28;20035;-50
2022/03/06 08:16:18;;;;;;;5.75;1.67;;;;;;;2.73;81.42;102709.91;4950440;28;20062;-50
2022/03/06 08:18:45;;;;;;;8.80;1.88;;;;;;;2.80;81.67;102704.31;4953143;28;20047;-52
2022/03/06 08:21:12;;;;;;;11.07;1.85;;;;;;;2.90;81.83;102696.28;4936933;28;20097;-52
2022/03/06 08:23:38;;;;;;;9.45;1.55;;;;;;;2.99;82.14;102701.09;4951184;28;20035;-56
2022/03/06 08:26:05;;;;;;;6.57;1.13;;;;;;;3.11;81.96;102705.66;4953445;28;20057;-56
2022/03/06 08:28:32;;;;;;;3.65;1.20;;;;;;;3.20;81.98;102715.13;4951853;28;20049;-52
2022/03/06 08:30:59;;;;;;;5.43;1.70;;;;;;;3.27;81.67;102715.78;4952137;28;20643;-53
2022/03/06 08:33:26;;;;;;;4.68;1.42;;;;;;;3.32;82.06;102708.50;4949356;28;20821;-53
2022/03/06 08:35:53;;;;;;;5.82;1.50;;;;;;;3.43;81.87;102714.97;4955020;28;20051;-52
2022/03/06 08:38:20;;;;;;;6.00;1.30;;;;;;;3.55;81.96;102719.25;4954842;28;20047;-50
2022/03/06 08:40:47;;;;;;;6.47;1.70;;;;;;;3.67;82.06;102717.28;4936931;28;20042;-54
2022/03/06 08:43:14;;;;;;;5.45;1.38;;;;;;;3.78;81.73;102718.25;4953128;28;20047;-55
2022/03/06 08:45:41;;;;;;;6.50;1.08;;;;;;;3.88;81.18;102712.91;4951987;28;20148;-59
2022/03/06 08:48:09;;;;;;;3.33;0.80;;;;;;;3.92;80.81;102714.06;4951844;28;20510;-57
2022/03/06 08:50:38;;;;;;;4.28;1.42;;;;;;;3.92;80.35;102716.00;4953873;28;20043;-59
2022/03/06 08:53:07;;;;;;;8.80;1.05;;;;;;;3.93;80.43;102715.72;4952350;28;20058;-58
2022/03/06 08:55:34;;;;;;;12.85;1.25;;;;;;;3.99;80.31;102711.97;4951272;28;20133;-59
2022/03/06 08:58:44;;;;;;;5.13;1.10;;;;;;;4.12;80.62;102711.59;4955617;28;20055;-57
2022/03/06 09:01:11;;;;;;;3.28;1.20;;;;;;;4.34;79.83;102717.09;4952778;28;20035;-57
2022/03/06 09:03:38;;;;;;;6.43;0.80;;;;;;;4.47;79.77;102715.88;4955932;28;20046;-59
2022/03/06 09:16:43;;;;;;;12.00;1.05;;;;;;;4.83;78.07;102710.50;4941116;29;20067;-58
2022/03/06 09:19:43;;;;;;;6.32;1.08;;;;;;;4.96;77.42;102722.97;4938131;29;20039;-56
2022/03/06 09:22:10;;;;;;;7.38;1.35;;;;;;;5.03;78.21;102723.59;4939408;29;20035;-56
2022/03/06 09:24:37;;;;;;;5.03;1.33;;;;;;;5.11;77.88;102730.56;4939592;29;20094;-58
2022/03/06 09:27:04;;;;;;;5.03;1.35;;;;;;;5.25;77.86;102729.84;4941206;29;20113;-53
2022/03/06 09:30:36;;;;;;;4.63;1.05;;;;;;;5.36;75.67;102731.59;4938327;29;20063;-56
2022/03/06 09:33:03;;;;;;;4.28;0.98;;;;;;;5.41;77.20;102728.06;4938135;29;20461;-57
2022/03/06 09:35:30;;;;;;;3.88;1.10;;;;;;;5.45;77.29;102721.75;4936477;29;20040;-56
2022/03/06 09:38:01;;;;;;;4.47;1.02;;;;;;;5.54;77.11;102714.69;4939829;29;20175;-56
2022/03/06 09:40:28;;;;;;;5.25;1.30;;;;;;;5.66;77.19;102724.69;4939124;29;20110;-58
2022/03/06 09:42:55;;;;;;;4.93;1.10;;;;;;;5.69;76.37;102716.75;4939691;29;20047;-56
2022/03/06 09:45:26;;;;;;;7.38;1.38;;;;;;;5.78;76.59;102717.06;4939704;29;20058;-57
2022/03/06 09:47:53;;;;;;;3.42;0.73;;;;;;;5.87;76.16;102715.50;4940512;29;20405;-60
2022/03/06 09:50:20;;;;;;;6.18;1.10;;;;;;;5.92;75.68;102719.13;4939429;29;20070;-56
2022/03/06 09:52:47;;;;;;;8.40;1.30;;;;;;;5.94;74.57;102721.59;4937534;29;20079;-57
2022/03/06 09:55:15;;;;;;;8.93;2.05;;;;;;;5.93;74.03;102718.00;4939240;29;20040;-56
2022/03/06 09:57:43;;;;;;;3.97;0.80;;;;;;;5.95;73.80;102718.59;4940149;29;20086;-53
2022/03/06 10:04:25;;;;;;;;;;;;;;;5.89;70.59;102722.41;4938245;29;20054;-53
2022/03/06 10:07:13;;;;;;;7.88;1.10;;;;;;;5.91;72.82;102720.19;4938268;29;19929;-57
2022/03/06 10:09:58;;;;;;;3.75;1.10;;;;;;;5.87;72.84;102727.34;4943966;28;20059;-55
2022/03/06 10:12:29;;;;;;;11.02;1.00;;;;;;;5.84;72.73;102716.00;4950333;28;20047;-56
2022/03/06 10:14:58;;;;;;;9.00;0.70;;;;;;;5.82;72.83;102718.19;4953164;28;20520;-55
2022/03/06 10:17:28;;;;;;;7.15;1.23;;;;;;;5.86;72.54;102708.34;4953746;28;20043;-59
2022/03/06 10:20:01;;;;;;;11.65;1.40;;;;;;;5.90;72.52;102707.56;4936519;28;20047;-58
2022/03/06 10:22:30;;;;;;;6.43;1.30;;;;;;;5.95;72.53;102706.75;4936125;28;20563;-56
2022/03/06 10:35:04;;;;;;;6.43;0.77;;;;;;;6.01;70.55;102711.19;4955842;28;20050;-52
2022/03/06 10:37:31;;;;;;;8.70;0.90;;;;;;;6.02;71.50;102690.84;4954741;28;20062;-59
2022/03/06 10:39:58;;;;;;;7.50;1.00;;;;;;;6.05;71.45;102699.41;4953735;28;20121;-54
2022/03/06 10:42:25;;;;;;;5.68;1.73;;;;;;;6.11;71.31;102697.50;4936518;28;20097;-54
2022/03/06 10:44:52;;;;;;;9.15;2.22;;;;;;;6.10;71.44;102687.59;4956134;28;20047;-57
2022/03/06 10:47:19;;;;;;;7.10;1.25;;;;;;;6.14;70.87;102683.22;4958590;28;20039;-53
2022/03/06 10:50:03;;;;;;;6.50;2.58;;;;;;;6.15;69.69;102684.84;4938975;28;20047;-57
2022/03/06 10:52:40;;;;;;;1.75;1.05;;;;;;;6.19;70.02;102688.72;4951816;28;20105;-57
2022/03/06 10:55:07;;;;;;;6.18;1.02;;;;;;;6.22;69.97;102684.63;4956297;28;20137;-59
2022/03/06 10:57:34;;;;;;;3.53;0.75;;;;;;;6.23;69.98;102692.59;4954589;28;20060;-58
2022/03/06 11:00:03;;;;;;;5.22;1.00;;;;;;;6.23;69.70;102692.59;4953524;28;20066;-56
2022/03/06 11:02:31;;;;;;;3.28;0.93;;;;;;;6.22;70.29;102679.13;4958856;28;20105;-55
2022/03/06 11:05:00;;;;;;;10.98;1.20;;;;;;;6.21;69.82;102671.94;4953721;28;20079;-58
2022/03/06 11:07:29;;;;;;;4.03;1.23;;;;;;;6.23;69.96;102676.09;4953539;28;20566;-56
2022/03/06 11:09:58;;;;;;;9.63;2.10;;;;;;;6.30;70.31;102671.16;4955483;28;20110;-57
2022/03/06 11:12:25;;;;;;;3.67;0.90;;;;;;;6.41;70.47;102661.84;4953071;28;20492;-47
